Time;durP1;ratioP1;P1;durP2;ratioP2;P2;SDS_P1;SDS_P2;PMS_P1;PMS_P2;Temp;Humidity;BMP_temperature;BMP_pressure;BME280_temperature;BME280_humidity;BME280_pressure;Samples;Min_cycle;Max_cycle;Signal;HPM_P1;HPM_P2
2020/12/12 00:01:32;;;;;;;19.80;11.10;;;;;;;;;;5092439;28;20540;-83
2020/12/12 00:03:58;;;;;;;17.88;10.65;;;;;;;;;;5094901;28;20020;-85
2020/12/12 00:06:24;;;;;;;19.45;10.50;;;;;;;;;;5094628;28;20035;-86
2020/12/12 00:08:50;;;;;;;19.00;11.45;;;;;;;;;;5094726;28;20048;-78
2020/12/12 00:11:16;;;;;;;18.33;10.13;;;;;;;;;;5094684;28;20039;-86
2020/12/12 00:13:43;;;;;;;15.93;10.30;;;;;;;;;;5094536;28;20024;-81
2020/12/12 00:16:09;;;;;;;18.45;11.15;;;;;;;;;;5089441;28;20476;-86
2020/12/12 00:18:35;;;;;;;17.95;10.43;;;;;;;;;;5074276;28;20024;-83
2020/12/12 00:21:01;;;;;;;18.02;10.80;;;;;;;;;;5074043;28;20063;-80
2020/12/12 00:23:27;;;;;;;15.63;10.05;;;;;;;;;;5074507;28;20029;-83
2020/12/12 00:25:53;;;;;;;18.45;11.23;;;;;;;;;;5074209;28;20462;-85
2020/12/12 00:28:19;;;;;;;18.05;10.32;;;;;;;;;;5074178;28;20484;-85
2020/12/12 00:30:45;;;;;;;16.25;10.63;;;;;;;;;;5073757;28;20117;-85
2020/12/12 00:33:12;;;;;;;15.75;9.98;;;;;;;;;;5074092;28;20070;-84
2020/12/12 00:35:38;;;;;;;16.25;10.32;;;;;;;;;;5073937;28;20036;-82
2020/12/12 00:38:04;;;;;;;17.75;10.63;;;;;;;;;;5074050;28;20020;-86
2020/12/12 00:40:30;;;;;;;16.70;10.23;;;;;;;;;;5074137;28;20021;-82
2020/12/12 00:42:56;;;;;;;18.75;11.15;;;;;;;;;;5055962;28;20028;-86
2020/12/12 00:45:22;;;;;;;17.42;11.35;;;;;;;;;;5073717;28;20024;-80
2020/12/12 00:47:48;;;;;;;19.40;10.93;;;;;;;;;;5073783;28;20027;-85
2020/12/12 00:50:14;;;;;;;18.52;10.95;;;;;;;;;;5073770;28;20035;-84
2020/12/12 00:52:40;;;;;;;19.90;10.95;;;;;;;;;;5073499;28;20033;-86
2020/12/12 00:55:06;;;;;;;19.42;12.00;;;;;;;;;;5073480;28;20025;-86
2020/12/12 00:57:32;;;;;;;20.35;12.90;;;;;;;;;;5073277;28;20024;-85
2020/12/12 00:59:58;;;;;;;19.50;11.48;;;;;;;;;;5073446;28;20021;-85
2020/12/12 01:02:24;;;;;;;21.35;12.32;;;;;;;;;;5073295;28;20021;-83
2020/12/12 01:04:50;;;;;;;19.83;11.15;;;;;;;;;;5073176;28;20118;-85
2020/12/12 01:07:16;;;;;;;21.38;12.10;;;;;;;;;;5075890;28;20372;-84
2020/12/12 01:09:42;;;;;;;17.95;11.00;;;;;;;;;;5093716;28;20487;-80
2020/12/12 01:12:08;;;;;;;19.25;11.18;;;;;;;;;;5093181;28;20479;-87
2020/12/12 01:14:34;;;;;;;20.70;10.63;;;;;;;;;;5093007;28;20020;-84
2020/12/12 01:17:00;;;;;;;19.10;11.35;;;;;;;;;;5093426;28;20024;-81
2020/12/12 01:19:26;;;;;;;19.23;11.18;;;;;;;;;;5093515;28;20020;-85
2020/12/12 01:21:54;;;;;;;19.90;12.57;;;;;;;;;;5092889;28;20655;-86
2020/12/12 01:24:20;;;;;;;17.63;10.40;;;;;;;;;;5093152;28;20105;-82
2020/12/12 01:26:47;;;;;;;19.67;11.52;;;;;;;;;;5092960;28;20052;-85
2020/12/12 01:29:13;;;;;;;21.30;12.05;;;;;;;;;;5093038;28;20066;-86
2020/12/12 01:31:39;;;;;;;20.60;11.35;;;;;;;;;;5092271;28;20029;-86
2020/12/12 01:34:05;;;;;;;20.08;11.73;;;;;;;;;;5092825;28;20024;-83
2020/12/12 01:36:32;;;;;;;20.02;12.35;;;;;;;;;;5074788;28;20383;-82
2020/12/12 01:38:58;;;;;;;21.42;12.60;;;;;;;;;;5093213;28;20088;-84
2020/12/12 01:41:24;;;;;;;19.13;11.00;;;;;;;;;;5092474;28;20026;-85
2020/12/12 01:43:51;;;;;;;20.15;11.98;;;;;;;;;;5074599;28;20024;-84
2020/12/12 01:46:24;;;;;;;21.70;12.68;;;;;;;;;;5092743;28;20467;-83
2020/12/12 01:48:51;;;;;;;21.35;12.40;;;;;;;;;;5092762;28;20020;-85
2020/12/12 01:51:18;;;;;;;21.95;12.20;;;;;;;;;;5092667;28;20423;-83
2020/12/12 01:53:44;;;;;;;22.92;12.35;;;;;;;;;;5092487;28;20495;-81
2020/12/12 01:56:10;;;;;;;22.13;12.77;;;;;;;;;;5092569;28;20157;-83
2020/12/12 01:58:36;;;;;;;23.25;13.55;;;;;;;;;;5074367;28;20425;-82
2020/12/12 02:01:02;;;;;;;22.67;12.25;;;;;;;;;;5092475;28;20107;-80
2020/12/12 02:03:29;;;;;;;22.42;12.43;;;;;;;;;;5092595;28;20024;-83
2020/12/12 02:05:57;;;;;;;24.33;12.30;;;;;;;;;;5092546;28;20028;-83
2020/12/12 02:08:23;;;;;;;25.33;13.13;;;;;;;;;;5074295;28;20028;-83
2020/12/12 02:10:50;;;;;;;22.75;12.63;;;;;;;;;;5092477;28;20020;-85
2020/12/12 02:13:17;;;;;;;18.73;7.65;;;;;;;;;;5092250;28;20084;-83
2020/12/12 02:15:43;;;;;;;22.67;13.13;;;;;;;;;;5074328;28;20032;-83
2020/12/12 02:18:23;;;;;;;26.50;14.05;;;;;;;;;;5092307;28;20024;-83
2020/12/12 02:21:08;;;;;;;22.55;12.70;;;;;;;;;;5092487;28;20020;-84
2020/12/12 02:23:34;;;;;;;24.83;13.48;;;;;;;;;;5092789;28;20105;-84
2020/12/12 02:26:00;;;;;;;21.92;11.95;;;;;;;;;;5092250;28;20523;-84
2020/12/12 02:28:41;;;;;;;24.40;13.82;;;;;;;;;;5092657;28;20069;-85
2020/12/12 02:31:07;;;;;;;23.88;12.80;;;;;;;;;;5092178;28;20035;-84
2020/12/12 02:33:33;;;;;;;23.80;13.55;;;;;;;;;;5092383;28;20024;-83
2020/12/12 02:35:59;;;;;;;22.40;12.57;;;;;;;;;;5092167;28;20020;-82
2020/12/12 02:38:25;;;;;;;22.48;12.25;;;;;;;;;;5092360;28;20016;-81
2020/12/12 02:40:51;;;;;;;26.75;14.52;;;;;;;;;;5092252;28;20017;-84
2020/12/12 02:43:18;;;;;;;27.17;13.90;;;;;;;;;;5093409;28;20031;-82
2020/12/12 02:45:45;;;;;;;25.25;14.15;;;;;;;;;;5095824;28;20023;-81
2020/12/12 02:48:11;;;;;;;24.08;14.00;;;;;;;;;;5095717;28;20368;-85
2020/12/12 02:50:37;;;;;;;26.23;14.15;;;;;;;;;;5095987;28;20020;-84
2020/12/12 02:53:03;;;;;;;22.45;12.57;;;;;;;;;;5096046;28;20024;-83
2020/12/12 02:55:29;;;;;;;24.63;13.18;;;;;;;;;;5095904;28;20016;-84
2020/12/12 02:57:55;;;;;;;25.40;12.63;;;;;;;;;;5095982;28;20024;-82
2020/12/12 03:00:23;;;;;;;25.00;13.20;;;;;;;;;;5095521;28;20144;-85
2020/12/12 03:02:49;;;;;;;23.17;10.30;;;;;;;;;;5077601;28;20020;-85
2020/12/12 03:05:15;;;;;;;24.60;12.40;;;;;;;;;;5095936;28;20468;-84
2020/12/12 03:07:41;;;;;;;23.90;13.30;;;;;;;;;;5095844;28;20158;-85
2020/12/12 03:10:07;;;;;;;29.88;12.35;;;;;;;;;;5095838;28;20032;-85
2020/12/12 03:12:34;;;;;;;25.13;13.50;;;;;;;;;;5095527;28;20114;-84
2020/12/12 03:15:00;;;;;;;24.52;12.10;;;;;;;;;;5095871;28;20107;-85
2020/12/12 03:17:26;;;;;;;21.23;12.40;;;;;;;;;;5095554;28;20027;-81
2020/12/12 03:19:52;;;;;;;23.92;11.70;;;;;;;;;;5095580;28;20067;-84
2020/12/12 03:22:18;;;;;;;25.52;14.18;;;;;;;;;;5095542;28;20389;-86
2020/12/12 03:24:45;;;;;;;25.25;12.82;;;;;;;;;;5095306;28;20059;-82
2020/12/12 03:27:11;;;;;;;24.25;13.25;;;;;;;;;;5095505;28;20107;-86
2020/12/12 03:29:37;;;;;;;23.58;11.93;;;;;;;;;;5095383;28;20054;-82
2020/12/12 03:32:10;;;;;;;22.48;11.27;;;;;;;;;;5095282;28;20476;-81
2020/12/12 03:34:36;;;;;;;23.27;11.90;;;;;;;;;;5078521;28;20062;-83
2020/12/12 03:37:03;;;;;;;26.92;13.05;;;;;;;;;;5099218;28;20027;-85
2020/12/12 03:39:29;;;;;;;24.88;12.13;;;;;;;;;;5099364;28;20047;-88
2020/12/12 03:41:55;;;;;;;26.70;13.02;;;;;;;;;;5099252;28;20039;-87
2020/12/12 03:44:21;;;;;;;24.00;12.07;;;;;;;;;;5098583;28;20031;-85
2020/12/12 03:46:47;;;;;;;18.85;9.23;;;;;;;;;;5098794;28;20031;-84
2020/12/12 03:49:13;;;;;;;23.52;12.82;;;;;;;;;;5097765;28;20016;-84
2020/12/12 03:51:39;;;;;;;21.13;11.20;;;;;;;;;;5097835;28;20043;-85
2020/12/12 03:54:05;;;;;;;23.50;13.30;;;;;;;;;;5099296;28;20027;-86
2020/12/12 03:56:32;;;;;;;23.55;12.65;;;;;;;;;;5095923;28;20020;-83
2020/12/12 03:58:58;;;;;;;23.67;12.05;;;;;;;;;;5093138;28;20028;-80
2020/12/12 04:01:24;;;;;;;23.60;12.38;;;;;;;;;;5087312;28;20085;-77
2020/12/12 04:03:50;;;;;;;24.70;12.88;;;;;;;;;;5090875;28;20023;-76
2020/12/12 04:06:16;;;;;;;21.15;10.93;;;;;;;;;;5087477;28;20027;-72
2020/12/12 04:08:42;;;;;;;26.58;12.57;;;;;;;;;;5071508;28;20024;-89
2020/12/12 04:11:08;;;;;;;21.92;10.98;;;;;;;;;;5086539;28;20081;-86
2020/12/12 04:13:34;;;;;;;24.05;13.15;;;;;;;;;;5098282;28;20023;-85
2020/12/12 04:16:00;;;;;;;25.00;12.73;;;;;;;;;;5073586;28;20016;-86
2020/12/12 04:18:26;;;;;;;24.20;12.55;;;;;;;;;;5090902;28;20070;-87
2020/12/12 04:20:54;;;;;;;22.83;12.10;;;;;;;;;;5084449;28;20113;-86
2020/12/12 04:23:23;;;;;;;26.27;12.90;;;;;;;;;;5084089;28;20035;-86
2020/12/12 04:25:52;;;;;;;24.70;12.80;;;;;;;;;;5060279;28;20055;-86
2020/12/12 04:28:20;;;;;;;21.95;12.48;;;;;;;;;;5060832;28;20036;-86
2020/12/12 04:30:46;;;;;;;24.40;13.05;;;;;;;;;;5085286;28;20027;-83
2020/12/12 04:33:12;;;;;;;24.77;13.20;;;;;;;;;;5065108;28;20479;-88
2020/12/12 04:35:38;;;;;;;22.80;12.25;;;;;;;;;;5059440;28;20384;-81
2020/12/12 04:38:04;;;;;;;22.90;12.52;;;;;;;;;;5060903;28;20020;-79
2020/12/12 04:40:30;;;;;;;21.88;11.73;;;;;;;;;;5061979;28;20028;-88
2020/12/12 04:42:57;;;;;;;22.02;12.98;;;;;;;;;;5063910;28;20027;-87
2020/12/12 04:45:23;;;;;;;24.25;12.75;;;;;;;;;;5063650;28;20039;-86
2020/12/12 04:47:50;;;;;;;24.60;13.25;;;;;;;;;;5071919;28;20027;-86
2020/12/12 04:50:17;;;;;;;25.00;13.27;;;;;;;;;;5070573;28;20078;-84
2020/12/12 04:52:43;;;;;;;24.33;13.25;;;;;;;;;;5073608;28;20120;-86
2020/12/12 04:55:10;;;;;;;24.60;12.80;;;;;;;;;;5073542;28;20413;-86
2020/12/12 04:57:37;;;;;;;23.20;12.43;;;;;;;;;;5073738;28;20024;-83
2020/12/12 05:00:11;;;;;;;26.25;13.20;;;;;;;;;;5073513;28;20524;-86
2020/12/12 05:02:37;;;;;;;25.98;12.70;;;;;;;;;;5073306;28;20025;-85
2020/12/12 05:05:07;;;;;;;26.02;12.77;;;;;;;;;;5073701;28;20060;-83
2020/12/12 05:07:33;;;;;;;26.10;13.27;;;;;;;;;;5072490;28;20376;-84
2020/12/12 05:10:03;;;;;;;25.23;13.30;;;;;;;;;;5073157;28;20020;-87
2020/12/12 05:12:30;;;;;;;25.00;13.32;;;;;;;;;;5072923;28;20060;-86
2020/12/12 05:14:56;;;;;;;25.65;14.23;;;;;;;;;;5072070;28;20063;-87
2020/12/12 05:17:22;;;;;;;29.45;13.32;;;;;;;;;;5073106;28;20051;-87
2020/12/12 05:19:49;;;;;;;25.55;14.02;;;;;;;;;;5068657;28;20473;-81
2020/12/12 05:22:15;;;;;;;24.77;13.88;;;;;;;;;;5052604;28;20535;-87
2020/12/12 05:24:41;;;;;;;25.60;14.15;;;;;;;;;;5053057;28;20032;-86
2020/12/12 05:27:07;;;;;;;24.27;12.85;;;;;;;;;;5072919;28;20071;-83
2020/12/12 05:29:34;;;;;;;25.80;12.50;;;;;;;;;;5073222;28;20021;-88
2020/12/12 05:32:00;;;;;;;23.10;12.13;;;;;;;;;;5073014;28;20033;-87
2020/12/12 05:34:27;;;;;;;28.73;14.38;;;;;;;;;;5072914;28;20024;-88
2020/12/12 05:36:53;;;;;;;25.08;12.63;;;;;;;;;;5073066;28;20032;-86
2020/12/12 05:39:19;;;;;;;24.90;12.07;;;;;;;;;;5054974;28;20082;-84
2020/12/12 05:41:46;;;;;;;24.80;13.20;;;;;;;;;;5055431;28;20025;-85
2020/12/12 05:44:13;;;;;;;22.52;12.95;;;;;;;;;;5073309;28;20051;-83
2020/12/12 05:46:39;;;;;;;24.25;12.77;;;;;;;;;;5073274;28;20028;-88
2020/12/12 05:49:06;;;;;;;23.30;11.57;;;;;;;;;;5072662;28;20020;-81
2020/12/12 05:51:32;;;;;;;25.67;12.80;;;;;;;;;;5058145;28;20051;-85
2020/12/12 05:53:59;;;;;;;29.60;14.15;;;;;;;;;;5070736;28;20036;-82
2020/12/12 05:56:26;;;;;;;26.75;14.35;;;;;;;;;;5071495;28;20484;-84
2020/12/12 05:58:53;;;;;;;28.40;13.68;;;;;;;;;;5070335;28;20025;-83
2020/12/12 06:01:20;;;;;;;26.20;13.93;;;;;;;;;;5070022;28;20037;-84
2020/12/12 06:03:58;;;;;;;25.05;13.77;;;;;;;;;;5069670;28;20427;-81
2020/12/12 06:06:25;;;;;;;26.73;13.90;;;;;;;;;;5070063;28;20025;-82
2020/12/12 06:09:01;;;;;;;27.50;13.77;;;;;;;;;;5070211;28;20137;-81
2020/12/12 06:11:31;;;;;;;24.08;12.48;;;;;;;;;;5070406;28;20128;-80
2020/12/12 06:13:58;;;;;;;23.95;13.10;;;;;;;;;;5070568;28;20032;-83
2020/12/12 06:16:25;;;;;;;28.52;14.45;;;;;;;;;;5065737;28;20116;-86
2020/12/12 06:18:57;;;;;;;24.35;12.45;;;;;;;;;;5072459;28;20024;-84
2020/12/12 06:21:23;;;;;;;26.08;13.05;;;;;;;;;;5074377;28;20012;-86
2020/12/12 06:23:49;;;;;;;24.23;13.43;;;;;;;;;;5056684;28;20452;-83
2020/12/12 06:26:18;;;;;;;24.88;13.43;;;;;;;;;;5073466;28;20040;-81
2020/12/12 06:28:44;;;;;;;26.77;12.98;;;;;;;;;;5073652;28;20115;-83
2020/12/12 06:31:14;;;;;;;24.45;12.48;;;;;;;;;;5074141;28;20075;-87
2020/12/12 06:33:50;;;;;;;24.50;12.85;;;;;;;;;;5074206;28;20462;-83
2020/12/12 06:36:26;;;;;;;27.27;13.60;;;;;;;;;;5073718;28;20020;-83
2020/12/12 06:39:12;;;;;;;27.10;13.93;;;;;;;;;;5074479;28;20029;-87
2020/12/12 06:41:38;;;;;;;28.75;14.35;;;;;;;;;;5074970;28;20025;-86
2020/12/12 06:44:04;;;;;;;27.02;13.85;;;;;;;;;;5075519;28;20032;-86
2020/12/12 06:46:51;;;;;;;28.30;13.85;;;;;;;;;;5074987;28;20027;-85
2020/12/12 06:49:17;;;;;;;28.80;14.60;;;;;;;;;;5057410;28;20361;-87
2020/12/12 06:51:43;;;;;;;27.90;14.90;;;;;;;;;;5089451;28;20036;-89
2020/12/12 06:54:09;;;;;;;32.92;17.17;;;;;;;;;;5095823;28;20016;-84
2020/12/12 06:56:35;;;;;;;30.00;15.73;;;;;;;;;;5096004;28;20024;-85
2020/12/12 06:59:20;;;;;;;29.70;16.58;;;;;;;;;;5095635;28;20027;-88
2020/12/12 07:01:53;;;;;;;32.33;18.05;;;;;;;;;;5095676;28;20434;-90
2020/12/12 07:04:23;;;;;;;33.60;17.53;;;;;;;;;;5094335;28;20103;-77
2020/12/12 07:06:55;;;;;;;30.95;16.90;;;;;;;;;;5094718;28;20028;-79
2020/12/12 07:09:23;;;;;;;32.67;16.80;;;;;;;;;;5095412;28;20028;-83
2020/12/12 07:11:49;;;;;;;28.90;15.93;;;;;;;;;;5095767;28;20071;-91
2020/12/12 07:14:16;;;;;;;31.55;16.50;;;;;;;;;;5094988;28;20368;-86
2020/12/12 07:16:43;;;;;;;31.30;16.15;;;;;;;;;;5093631;28;20028;-83
2020/12/12 07:19:10;;;;;;;29.83;15.52;;;;;;;;;;5093919;28;20054;-86
2020/12/12 07:21:41;;;;;;;30.23;15.05;;;;;;;;;;5094385;28;20070;-85
2020/12/12 07:24:07;;;;;;;31.90;14.98;;;;;;;;;;5075886;28;20054;-86
2020/12/12 07:26:33;;;;;;;33.28;15.80;;;;;;;;;;5075901;28;20533;-84
2020/12/12 07:28:59;;;;;;;29.77;15.23;;;;;;;;;;5064169;28;20028;-75
2020/12/12 07:31:26;;;;;;;30.55;14.75;;;;;;;;;;5092731;28;20036;-78
2020/12/12 07:33:52;;;;;;;30.52;15.60;;;;;;;;;;5096784;28;20024;-89
2020/12/12 07:36:18;;;;;;;30.10;15.35;;;;;;;;;;5094643;28;20023;-86
2020/12/12 07:38:45;;;;;;;31.52;15.40;;;;;;;;;;5075854;28;20066;-86
2020/12/12 07:41:11;;;;;;;32.58;15.88;;;;;;;;;;5075321;28;20024;-88
2020/12/12 07:43:49;;;;;;;27.50;14.73;;;;;;;;;;5093858;28;20036;-84
2020/12/12 07:46:15;;;;;;;33.60;16.83;;;;;;;;;;5094116;28;20027;-90
2020/12/12 07:48:41;;;;;;;29.50;14.38;;;;;;;;;;5090956;28;20020;-88
2020/12/12 07:51:14;;;;;;;30.50;14.98;;;;;;;;;;5063748;28;20074;-81
2020/12/12 07:53:40;;;;;;;30.65;15.07;;;;;;;;;;5092581;28;20391;-86
2020/12/12 07:56:07;;;;;;;29.95;14.95;;;;;;;;;;5092579;28;20043;-84
2020/12/12 07:58:36;;;;;;;29.83;15.07;;;;;;;;;;5092732;28;20483;-83
2020/12/12 08:01:04;;;;;;;30.30;16.30;;;;;;;;;;5093066;28;20028;-82
2020/12/12 08:03:30;;;;;;;29.35;15.82;;;;;;;;;;5092934;28;20107;-83
2020/12/12 08:06:06;;;;;;;31.10;15.55;;;;;;;;;;5092694;28;20028;-82
2020/12/12 08:08:33;;;;;;;31.05;15.93;;;;;;;;;;5092272;28;20020;-83
2020/12/12 08:11:00;;;;;;;33.55;17.40;;;;;;;;;;5091982;28;20035;-84
2020/12/12 08:13:27;;;;;;;30.90;16.17;;;;;;;;;;5092168;28;20035;-84
2020/12/12 08:16:14;;;;;;;28.85;16.48;;;;;;;;;;5091755;28;20027;-85
2020/12/12 08:18:40;;;;;;;30.45;16.50;;;;;;;;;;5092212;28;20035;-80
2020/12/12 08:21:25;;;;;;;35.28;16.98;;;;;;;;;;5091890;28;20035;-83
2020/12/12 08:23:51;;;;;;;;;;;;;;;;;;5091688;28;20031;-82
2020/12/12 08:26:21;;;;;;;31.17;16.45;;;;;;;;;;5091341;28;19989;-81
2020/12/12 08:28:47;;;;;;;26.65;13.95;;;;;;;;;;5091646;28;20028;-84
2020/12/12 08:31:14;;;;;;;32.33;15.85;;;;;;;;;;5091667;28;20391;-80
2020/12/12 08:33:40;;;;;;;31.67;16.73;;;;;;;;;;5092037;28;20107;-80
2020/12/12 08:36:33;;;;;;;29.23;15.20;;;;;;;;;;5091701;28;20024;-83
2020/12/12 08:39:00;;;;;;;28.92;15.20;;;;;;;;;;5087609;28;20040;-84
2020/12/12 08:41:31;;;;;;;27.98;15.48;;;;;;;;;;5091213;28;20471;-83
2020/12/12 08:43:57;;;;;;;31.17;15.77;;;;;;;;;;5073142;28;20051;-81
2020/12/12 08:46:23;;;;;;;34.45;16.77;;;;;;;;;;5091264;28;20028;-78
2020/12/12 08:48:50;;;;;;;31.55;14.88;;;;;;;;;;5091141;28;20028;-73
2020/12/12 08:51:23;;;;;;;33.28;16.75;;;;;;;;;;5079904;28;20021;-78
2020/12/12 08:53:50;;;;;;;29.77;16.77;;;;;;;;;;5070940;28;20043;-82
2020/12/12 08:56:24;;;;;;;32.90;16.23;;;;;;;;;;5071064;28;20024;-83
2020/12/12 08:58:57;;;;;;;31.58;16.55;;;;;;;;;;5070851;28;20021;-80
2020/12/12 09:01:30;;;;;;;28.80;15.43;;;;;;;;;;5070971;28;20016;-83
2020/12/12 09:03:57;;;;;;;30.65;16.25;;;;;;;;;;5070282;28;20429;-83
2020/12/12 09:06:24;;;;;;;31.80;16.15;;;;;;;;;;5070983;28;20020;-85
2020/12/12 09:09:26;;;;;;;33.42;16.20;;;;;;;;;;5070445;28;20847;-84
2020/12/12 09:12:02;;;;;;;31.73;16.27;;;;;;;;;;5008308;28;20033;-83
2020/12/12 09:14:29;;;;;;;32.67;16.30;;;;;;;;;;5062434;28;20049;-84
2020/12/12 09:16:56;;;;;;;33.72;16.58;;;;;;;;;;5070752;28;20505;-83
2020/12/12 09:19:23;;;;;;;31.98;15.48;;;;;;;;;;5070754;28;20032;-82
2020/12/12 09:21:49;;;;;;;30.63;17.02;;;;;;;;;;5052629;28;20023;-82
2020/12/12 09:24:16;;;;;;;30.25;15.20;;;;;;;;;;5070295;28;20036;-79
2020/12/12 09:26:42;;;;;;;32.95;16.20;;;;;;;;;;5069949;28;20493;-82
2020/12/12 09:29:08;;;;;;;30.05;15.93;;;;;;;;;;5052349;28;20503;-76
2020/12/12 09:31:34;;;;;;;27.20;15.05;;;;;;;;;;5070174;28;20435;-73
2020/12/12 09:34:01;;;;;;;29.38;15.77;;;;;;;;;;5070214;28;20051;-80
2020/12/12 09:36:27;;;;;;;32.83;16.45;;;;;;;;;;5069847;28;20358;-82
2020/12/12 09:38:53;;;;;;;31.05;15.32;;;;;;;;;;5068513;28;20434;-81
2020/12/12 09:41:19;;;;;;;30.08;14.77;;;;;;;;;;5069439;28;20612;-80
2020/12/12 09:43:45;;;;;;;21.63;11.93;;;;;;;;;;5070328;28;20368;-75
2020/12/12 09:46:12;;;;;;;21.40;12.25;;;;;;;;;;5070187;28;20081;-80
2020/12/12 09:48:38;;;;;;;26.35;13.82;;;;;;;;;;5070027;28;20035;-76
2020/12/12 09:51:05;;;;;;;23.65;12.30;;;;;;;;;;5078904;28;20032;-82
2020/12/12 09:53:31;;;;;;;22.27;12.82;;;;;;;;;;5089852;28;20035;-77
2020/12/12 09:55:57;;;;;;;23.17;11.82;;;;;;;;;;5075629;28;20028;-79
2020/12/12 09:58:26;;;;;;;23.50;12.35;;;;;;;;;;5069827;28;20039;-81
2020/12/12 10:00:52;;;;;;;20.50;11.32;;;;;;;;;;5069784;28;20060;-84
2020/12/12 10:03:19;;;;;;;21.52;11.82;;;;;;;;;;5069968;28;20451;-82
2020/12/12 10:05:45;;;;;;;23.05;12.57;;;;;;;;;;5070057;28;20383;-79
2020/12/12 10:08:11;;;;;;;19.90;10.80;;;;;;;;;;5070056;28;20036;-77
2020/12/12 10:10:37;;;;;;;25.70;12.95;;;;;;;;;;5070240;28;20025;-86
2020/12/12 10:13:03;;;;;;;25.98;13.73;;;;;;;;;;5069301;28;20036;-77
2020/12/12 10:15:29;;;;;;;25.80;12.63;;;;;;;;;;5069588;28;20043;-79
2020/12/12 10:17:56;;;;;;;23.73;12.18;;;;;;;;;;5069829;28;20087;-84
2020/12/12 10:20:22;;;;;;;25.15;13.25;;;;;;;;;;5070188;28;20033;-80
2020/12/12 10:22:49;;;;;;;23.55;12.75;;;;;;;;;;5069941;28;20104;-78
2020/12/12 10:25:15;;;;;;;24.27;12.50;;;;;;;;;;5051788;28;20083;-82
2020/12/12 10:27:43;;;;;;;21.80;12.23;;;;;;;;;;5069217;28;20025;-85
2020/12/12 10:30:10;;;;;;;21.38;11.98;;;;;;;;;;5069753;28;20023;-78
2020/12/12 10:32:37;;;;;;;23.05;13.20;;;;;;;;;;5069974;28;20341;-84
2020/12/12 10:35:04;;;;;;;21.55;12.52;;;;;;;;;;5069893;28;20029;-81
2020/12/12 10:37:30;;;;;;;22.50;11.65;;;;;;;;;;5069713;28;20025;-85
2020/12/12 10:42:48;;;;;;;23.50;11.70;;;;;;;;;;5038838;28;20036;-86
2020/12/12 10:45:14;;;;;;;22.80;12.50;;;;;;;;;;5069982;28;20032;-87
2020/12/12 10:47:40;;;;;;;20.77;11.38;;;;;;;;;;5069993;28;20021;-87
2020/12/12 10:50:07;;;;;;;22.95;11.98;;;;;;;;;;5069440;28;20035;-83
2020/12/12 10:52:34;;;;;;;19.38;11.57;;;;;;;;;;5069941;28;20059;-85
2020/12/12 10:55:00;;;;;;;22.08;11.35;;;;;;;;;;5069977;28;20032;-86
2020/12/12 10:57:27;;;;;;;25.10;12.07;;;;;;;;;;5069736;28;20021;-86
2020/12/12 10:59:53;;;;;;;22.10;11.18;;;;;;;;;;5069718;28;20024;-87
2020/12/12 11:02:19;;;;;;;21.30;11.80;;;;;;;;;;5051346;28;20021;-87
2020/12/12 11:04:45;;;;;;;21.08;11.55;;;;;;;;;;5069584;28;20066;-86
2020/12/12 11:07:12;;;;;;;24.73;12.52;;;;;;;;;;5072970;28;20029;-86
2020/12/12 11:09:38;;;;;;;20.92;11.07;;;;;;;;;;5072804;28;20117;-85
2020/12/12 11:12:04;;;;;;;20.75;11.20;;;;;;;;;;5072924;28;20121;-82
2020/12/12 11:14:33;;;;;;;19.40;11.38;;;;;;;;;;5073337;28;20031;-86
2020/12/12 11:17:00;;;;;;;20.20;11.30;;;;;;;;;;5055160;28;20060;-84
2020/12/12 11:19:26;;;;;;;20.25;11.75;;;;;;;;;;5072999;28;20025;-87
2020/12/12 11:21:53;;;;;;;22.02;11.13;;;;;;;;;;5072758;28;20048;-86
2020/12/12 11:24:19;;;;;;;21.00;11.85;;;;;;;;;;5072865;28;20047;-85
2020/12/12 11:26:45;;;;;;;19.27;10.82;;;;;;;;;;5072047;28;20079;-82
2020/12/12 11:29:12;;;;;;;21.60;12.10;;;;;;;;;;5072405;28;20039;-85
2020/12/12 11:31:41;;;;;;;21.73;12.18;;;;;;;;;;5072276;28;20035;-85
2020/12/12 11:34:14;;;;;;;22.25;12.32;;;;;;;;;;5054907;28;20442;-82
2020/12/12 11:39:21;;;;;;;22.42;11.45;;;;;;;;;;5072381;28;20036;-84
2020/12/12 11:46:49;;;;;;;20.55;11.35;;;;;;;;;;5071904;28;20522;-83
2020/12/12 11:49:15;;;;;;;21.60;10.52;;;;;;;;;;5071753;28;20052;-83
2020/12/12 11:51:41;;;;;;;21.80;11.32;;;;;;;;;;5071206;28;20434;-85
2020/12/12 11:54:07;;;;;;;24.08;12.13;;;;;;;;;;5053929;28;20031;-84
2020/12/12 11:56:34;;;;;;;21.77;11.65;;;;;;;;;;5054234;28;20025;-85
2020/12/12 11:59:00;;;;;;;21.95;11.30;;;;;;;;;;5083057;28;20024;-84
2020/12/12 12:01:27;;;;;;;21.63;10.98;;;;;;;;;;5092147;28;20028;-85
2020/12/12 12:03:54;;;;;;;18.23;10.82;;;;;;;;;;5091796;28;20046;-84
2020/12/12 12:06:20;;;;;;;21.35;10.50;;;;;;;;;;5092239;28;20442;-83
2020/12/12 12:09:08;;;;;;;22.08;11.45;;;;;;;;;;5092341;28;20031;-86
2020/12/12 12:11:35;;;;;;;22.25;11.00;;;;;;;;;;5091995;28;20024;-78
2020/12/12 12:14:05;;;;;;;23.35;11.43;;;;;;;;;;5091713;28;20023;-82
2020/12/12 12:16:41;;;;;;;23.38;11.88;;;;;;;;;;5073416;28;20115;-81
2020/12/12 12:19:11;;;;;;;24.35;12.52;;;;;;;;;;5091961;28;20420;-83
2020/12/12 12:21:37;;;;;;;24.55;11.65;;;;;;;;;;5091769;28;20055;-84
2020/12/12 12:24:04;;;;;;;20.30;10.80;;;;;;;;;;5073921;28;20032;-83
2020/12/12 12:26:34;;;;;;;23.02;12.10;;;;;;;;;;5091041;28;20496;-84
2020/12/12 12:29:00;;;;;;;20.33;10.10;;;;;;;;;;5091726;28;20519;-83
2020/12/12 12:31:26;;;;;;;23.35;11.70;;;;;;;;;;5091638;28;20030;-85
2020/12/12 12:33:52;;;;;;;23.25;12.00;;;;;;;;;;5091616;28;20082;-84
2020/12/12 12:36:23;;;;;;;23.23;12.27;;;;;;;;;;5091605;28;20381;-84
2020/12/12 12:38:49;;;;;;;22.02;11.30;;;;;;;;;;5091179;28;20028;-85
2020/12/12 12:41:15;;;;;;;21.55;11.88;;;;;;;;;;5091367;28;20384;-84
2020/12/12 12:43:41;;;;;;;22.50;11.73;;;;;;;;;;5091010;28;20475;-80
2020/12/12 12:46:08;;;;;;;23.15;11.52;;;;;;;;;;5091175;28;20031;-83
2020/12/12 12:48:34;;;;;;;22.50;11.85;;;;;;;;;;5091282;28;20016;-76
2020/12/12 12:51:00;;;;;;;19.40;11.35;;;;;;;;;;5082810;28;20032;-85
2020/12/12 12:53:26;;;;;;;21.40;11.93;;;;;;;;;;5070383;28;20086;-84
2020/12/12 12:55:52;;;;;;;21.50;11.85;;;;;;;;;;5070901;28;20054;-83
2020/12/12 12:58:18;;;;;;;22.25;11.60;;;;;;;;;;5070801;28;20032;-78
2020/12/12 13:00:44;;;;;;;23.65;12.25;;;;;;;;;;5070895;28;20052;-84
2020/12/12 13:03:10;;;;;;;21.08;11.65;;;;;;;;;;5070435;28;20029;-76
2020/12/12 13:05:39;;;;;;;22.77;12.05;;;;;;;;;;5070622;28;20029;-81
2020/12/12 13:08:05;;;;;;;22.80;11.52;;;;;;;;;;5070721;28;20107;-84
2020/12/12 13:10:31;;;;;;;20.85;11.25;;;;;;;;;;5073786;28;20024;-81
2020/12/12 13:12:57;;;;;;;25.85;13.10;;;;;;;;;;5090868;28;20044;-84
2020/12/12 13:15:23;;;;;;;22.85;11.77;;;;;;;;;;5090761;28;20024;-85
2020/12/12 13:17:49;;;;;;;22.30;12.63;;;;;;;;;;5090647;28;20043;-84
2020/12/12 13:22:48;;;;;;;25.05;12.77;;;;;;;;;;5090757;28;20036;-83
2020/12/12 13:25:14;;;;;;;23.33;12.68;;;;;;;;;;5090644;28;20043;-84
2020/12/12 13:27:41;;;;;;;22.55;12.43;;;;;;;;;;5089548;28;20027;-83
2020/12/12 13:32:33;;;;;;;21.63;12.70;;;;;;;;;;5090700;28;20492;-83
2020/12/12 13:34:59;;;;;;;22.17;12.15;;;;;;;;;;5090708;28;20498;-85
2020/12/12 13:37:25;;;;;;;25.77;12.57;;;;;;;;;;5090520;28;20031;-83
2020/12/12 13:39:51;;;;;;;25.15;13.25;;;;;;;;;;5089972;28;20024;-83
2020/12/12 13:42:18;;;;;;;26.88;14.43;;;;;;;;;;5090631;28;20471;-83
2020/12/12 13:44:45;;;;;;;23.08;12.57;;;;;;;;;;5090417;28;20102;-84
2020/12/12 13:47:11;;;;;;;27.00;13.43;;;;;;;;;;5090367;28;20038;-83
2020/12/12 13:49:38;;;;;;;24.27;13.35;;;;;;;;;;5089934;28;20492;-83
2020/12/12 13:52:09;;;;;;;28.77;14.50;;;;;;;;;;5054633;28;20220;-78
2020/12/12 13:54:35;;;;;;;31.25;14.18;;;;;;;;;;5070071;28;20033;-84
2020/12/12 13:57:01;;;;;;;29.20;14.90;;;;;;;;;;5069961;28;20050;-81
2020/12/12 13:59:27;;;;;;;32.28;16.48;;;;;;;;;;5070023;28;20027;-82
2020/12/12 14:01:53;;;;;;;31.85;16.48;;;;;;;;;;5069879;28;20024;-84
2020/12/12 14:04:20;;;;;;;41.03;17.80;;;;;;;;;;5051520;28;20546;-81
2020/12/12 14:06:47;;;;;;;36.40;16.95;;;;;;;;;;5051641;28;20029;-81
2020/12/12 14:09:32;;;;;;;32.70;14.70;;;;;;;;;;5069951;28;20025;-83
2020/12/12 14:23:02;;;;;;;;;;;;;;;;;;5078812;28;20024;-84
2020/12/12 14:25:33;;;;;;;28.58;14.10;;;;;;;;;;5074449;28;19951;-81
2020/12/12 14:30:44;;;;;;;27.58;14.40;;;;;;;;;;5070153;28;20121;-82
2020/12/12 14:33:10;;;;;;;30.30;14.55;;;;;;;;;;5075460;28;20441;-77
2020/12/12 14:35:36;;;;;;;25.48;13.57;;;;;;;;;;5089842;28;20032;-80
2020/12/12 14:38:03;;;;;;;30.52;13.73;;;;;;;;;;5089851;28;20145;-82
2020/12/12 14:40:29;;;;;;;24.83;13.57;;;;;;;;;;5092575;28;20024;-80
2020/12/12 14:42:55;;;;;;;25.00;13.50;;;;;;;;;;5093538;28;20020;-79
2020/12/12 14:45:21;;;;;;;34.22;16.35;;;;;;;;;;5093603;28;20053;-84
2020/12/12 14:47:47;;;;;;;38.50;17.80;;;;;;;;;;5075251;28;20480;-85
2020/12/12 14:50:14;;;;;;;32.22;15.43;;;;;;;;;;5091341;28;20557;-81